sensor_id;sensor_type;location;lat;lon;timestamp;P1;durP1;ratioP1;P2;durP2;ratioP2
54945;SDS011;40846;44.788;20.486;2024-02-28T00:01:49;18.27;;;9.75;;
54945;SDS011;40846;44.788;20.486;2024-02-28T00:04:15;31.27;;;11.23;;
54945;SDS011;40846;44.788;20.486;2024-02-28T00:06:41;25.02;;;11.05;;
54945;SDS011;40846;44.788;20.486;2024-02-28T00:09:07;33.05;;;12.40;;
54945;SDS011;40846;44.788;20.486;2024-02-28T00:11:34;28.73;;;10.15;;
54945;SDS011;40846;44.788;20.486;2024-02-28T00:14:00;22.40;;;10.05;;
54945;SDS011;40846;44.788;20.486;2024-02-28T00:16:27;21.67;;;10.55;;
54945;SDS011;40846;44.788;20.486;2024-02-28T00:18:53;25.38;;;10.63;;
54945;SDS011;40846;44.788;20.486;2024-02-28T00:21:19;26.67;;;9.52;;
54945;SDS011;40846;44.788;20.486;2024-02-28T00:23:45;24.30;;;10.07;;
54945;SDS011;40846;44.788;20.486;2024-02-28T00:26:13;22.88;;;9.98;;
54945;SDS011;40846;44.788;20.486;2024-02-28T00:28:39;18.40;;;10.00;;
54945;SDS011;40846;44.788;20.486;2024-02-28T00:31:05;30.80;;;11.00;;
54945;SDS011;40846;44.788;20.486;2024-02-28T00:33:31;18.00;;;9.77;;
54945;SDS011;40846;44.788;20.486;2024-02-28T00:35:57;26.00;;;10.50;;
54945;SDS011;40846;44.788;20.486;2024-02-28T00:38:23;25.90;;;10.63;;
54945;SDS011;40846;44.788;20.486;2024-02-28T00:40:49;26.83;;;10.75;;
54945;SDS011;40846;44.788;20.486;2024-02-28T00:43:15;28.00;;;9.38;;
54945;SDS011;40846;44.788;20.486;2024-02-28T00:45:41;23.50;;;10.35;;
54945;SDS011;40846;44.788;20.486;2024-02-28T00:48:08;20.00;;;9.38;;
54945;SDS011;40846;44.788;20.486;2024-02-28T00:50:34;22.92;;;10.02;;
54945;SDS011;40846;44.788;20.486;2024-02-28T00:53:00;22.30;;;10.63;;
54945;SDS011;40846;44.788;20.486;2024-02-28T00:55:26;32.25;;;11.60;;
54945;SDS011;40846;44.788;20.486;2024-02-28T00:57:52;21.67;;;10.52;;
54945;SDS011;40846;44.788;20.486;2024-02-28T01:00:19;24.30;;;10.55;;
54945;SDS011;40846;44.788;20.486;2024-02-28T01:02:45;26.92;;;11.40;;
54945;SDS011;40846;44.788;20.486;2024-02-28T01:05:11;22.85;;;10.63;;
54945;SDS011;40846;44.788;20.486;2024-02-28T01:07:37;22.48;;;9.93;;
54945;SDS011;40846;44.788;20.486;2024-02-28T01:10:03;26.80;;;11.27;;
54945;SDS011;40846;44.788;20.486;2024-02-28T01:12:30;27.40;;;11.18;;
54945;SDS011;40846;44.788;20.486;2024-02-28T01:14:56;24.55;;;10.73;;
54945;SDS011;40846;44.788;20.486;2024-02-28T01:17:22;26.52;;;11.27;;
54945;SDS011;40846;44.788;20.486;2024-02-28T01:19:48;24.58;;;10.93;;
54945;SDS011;40846;44.788;20.486;2024-02-28T01:22:14;22.23;;;10.90;;
54945;SDS011;40846;44.788;20.486;2024-02-28T01:24:40;30.77;;;12.27;;
54945;SDS011;40846;44.788;20.486;2024-02-28T01:27:06;22.90;;;10.60;;
54945;SDS011;40846;44.788;20.486;2024-02-28T01:29:32;27.92;;;11.57;;
54945;SDS011;40846;44.788;20.486;2024-02-28T01:31:58;25.15;;;11.40;;
54945;SDS011;40846;44.788;20.486;2024-02-28T01:34:24;27.45;;;11.95;;
54945;SDS011;40846;44.788;20.486;2024-02-28T01:36:50;28.48;;;10.57;;
54945;SDS011;40846;44.788;20.486;2024-02-28T01:39:16;25.08;;;12.30;;
54945;SDS011;40846;44.788;20.486;2024-02-28T01:41:50;25.02;;;11.27;;
54945;SDS011;40846;44.788;20.486;2024-02-28T01:44:16;33.00;;;11.07;;
54945;SDS011;40846;44.788;20.486;2024-02-28T01:46:43;25.30;;;12.00;;
54945;SDS011;40846;44.788;20.486;2024-02-28T01:49:09;27.92;;;11.20;;
54945;SDS011;40846;44.788;20.486;2024-02-28T01:51:35;24.30;;;11.27;;
54945;SDS011;40846;44.788;20.486;2024-02-28T01:54:01;23.88;;;10.98;;
54945;SDS011;40846;44.788;20.486;2024-02-28T01:56:27;23.70;;;10.70;;
54945;SDS011;40846;44.788;20.486;2024-02-28T01:58:53;28.67;;;11.68;;
54945;SDS011;40846;44.788;20.486;2024-02-28T02:01:20;23.73;;;10.85;;
54945;SDS011;40846;44.788;20.486;2024-02-28T02:03:46;32.78;;;11.63;;
54945;SDS011;40846;44.788;20.486;2024-02-28T02:06:13;29.65;;;10.98;;
54945;SDS011;40846;44.788;20.486;2024-02-28T02:08:39;31.77;;;11.27;;
54945;SDS011;40846;44.788;20.486;2024-02-28T02:11:06;22.83;;;10.60;;
54945;SDS011;40846;44.788;20.486;2024-02-28T02:13:32;25.08;;;10.63;;
54945;SDS011;40846;44.788;20.486;2024-02-28T02:16:00;28.38;;;11.55;;
54945;SDS011;40846;44.788;20.486;2024-02-28T02:18:26;26.48;;;10.95;;
54945;SDS011;40846;44.788;20.486;2024-02-28T02:20:58;24.77;;;10.70;;
54945;SDS011;40846;44.788;20.486;2024-02-28T02:23:25;23.17;;;10.82;;
54945;SDS011;40846;44.788;20.486;2024-02-28T02:25:51;22.65;;;10.65;;
54945;SDS011;40846;44.788;20.486;2024-02-28T02:28:17;26.23;;;10.38;;
54945;SDS011;40846;44.788;20.486;2024-02-28T02:30:43;26.77;;;10.20;;
54945;SDS011;40846;44.788;20.486;2024-02-28T02:33:10;34.60;;;11.68;;
54945;SDS011;40846;44.788;20.486;2024-02-28T02:35:36;19.67;;;10.70;;
54945;SDS011;40846;44.788;20.486;2024-02-28T02:38:03;21.92;;;10.60;;
54945;SDS011;40846;44.788;20.486;2024-02-28T02:40:29;29.42;;;11.07;;
54945;SDS011;40846;44.788;20.486;2024-02-28T02:42:55;27.38;;;10.80;;
54945;SDS011;40846;44.788;20.486;2024-02-28T02:45:21;31.38;;;11.70;;
54945;SDS011;40846;44.788;20.486;2024-02-28T02:47:47;27.40;;;11.07;;
54945;SDS011;40846;44.788;20.486;2024-02-28T02:50:13;26.95;;;11.38;;
54945;SDS011;40846;44.788;20.486;2024-02-28T02:52:39;25.10;;;10.57;;
54945;SDS011;40846;44.788;20.486;2024-02-28T02:55:05;26.23;;;10.88;;
54945;SDS011;40846;44.788;20.486;2024-02-28T02:57:32;26.58;;;10.25;;
54945;SDS011;40846;44.788;20.486;2024-02-28T02:59:58;22.90;;;10.40;;
54945;SDS011;40846;44.788;20.486;2024-02-28T03:02:25;21.10;;;10.48;;
54945;SDS011;40846;44.788;20.486;2024-02-28T03:04:51;22.40;;;10.40;;
54945;SDS011;40846;44.788;20.486;2024-02-28T03:07:17;21.42;;;9.93;;
54945;SDS011;40846;44.788;20.486;2024-02-28T03:09:43;25.67;;;11.05;;
54945;SDS011;40846;44.788;20.486;2024-02-28T03:12:09;27.17;;;10.90;;
54945;SDS011;40846;44.788;20.486;2024-02-28T03:14:35;25.10;;;10.32;;
54945;SDS011;40846;44.788;20.486;2024-02-28T03:17:01;22.77;;;10.35;;
54945;SDS011;40846;44.788;20.486;2024-02-28T03:19:27;23.13;;;9.68;;
54945;SDS011;40846;44.788;20.486;2024-02-28T03:21:54;25.45;;;10.23;;
54945;SDS011;40846;44.788;20.486;2024-02-28T03:24:20;23.58;;;10.98;;
54945;SDS011;40846;44.788;20.486;2024-02-28T03:26:46;22.25;;;10.93;;
54945;SDS011;40846;44.788;20.486;2024-02-28T03:29:12;26.23;;;11.10;;
54945;SDS011;40846;44.788;20.486;2024-02-28T03:31:38;24.40;;;11.23;;
54945;SDS011;40846;44.788;20.486;2024-02-28T03:34:04;23.67;;;10.43;;
54945;SDS011;40846;44.788;20.486;2024-02-28T03:36:30;27.17;;;10.98;;
54945;SDS011;40846;44.788;20.486;2024-02-28T03:38:57;30.83;;;11.55;;
54945;SDS011;40846;44.788;20.486;2024-02-28T03:41:23;24.63;;;10.93;;
54945;SDS011;40846;44.788;20.486;2024-02-28T03:43:50;24.15;;;9.40;;
54945;SDS011;40846;44.788;20.486;2024-02-28T03:46:16;19.35;;;9.98;;
54945;SDS011;40846;44.788;20.486;2024-02-28T03:48:42;21.15;;;9.98;;
54945;SDS011;40846;44.788;20.486;2024-02-28T03:51:08;32.15;;;11.52;;
54945;SDS011;40846;44.788;20.486;2024-02-28T03:53:34;23.77;;;10.35;;
54945;SDS011;40846;44.788;20.486;2024-02-28T03:56:00;25.13;;;11.27;;
54945;SDS011;40846;44.788;20.486;2024-02-28T03:58:27;33.83;;;11.38;;
54945;SDS011;40846;44.788;20.486;2024-02-28T04:00:53;27.15;;;10.65;;
54945;SDS011;40846;44.788;20.486;2024-02-28T04:03:20;20.05;;;10.38;;
54945;SDS011;40846;44.788;20.486;2024-02-28T04:05:46;31.10;;;11.50;;
54945;SDS011;40846;44.788;20.486;2024-02-28T04:08:12;25.88;;;10.68;;
54945;SDS011;40846;44.788;20.486;2024-02-28T04:10:38;32.03;;;10.65;;
54945;SDS011;40846;44.788;20.486;2024-02-28T04:13:04;31.73;;;11.15;;
54945;SDS011;40846;44.788;20.486;2024-02-28T04:15:31;25.52;;;9.93;;
54945;SDS011;40846;44.788;20.486;2024-02-28T04:17:57;31.65;;;11.63;;
54945;SDS011;40846;44.788;20.486;2024-02-28T04:20:23;25.08;;;10.23;;
54945;SDS011;40846;44.788;20.486;2024-02-28T04:22:49;29.55;;;11.45;;
54945;SDS011;40846;44.788;20.486;2024-02-28T04:25:15;23.40;;;10.02;;
54945;SDS011;40846;44.788;20.486;2024-02-28T04:27:41;25.00;;;11.02;;
54945;SDS011;40846;44.788;20.486;2024-02-28T04:30:08;22.90;;;11.10;;
54945;SDS011;40846;44.788;20.486;2024-02-28T04:32:35;30.98;;;10.88;;
54945;SDS011;40846;44.788;20.486;2024-02-28T04:35:03;23.48;;;10.57;;
54945;SDS011;40846;44.788;20.486;2024-02-28T04:37:29;25.88;;;10.23;;
54945;SDS011;40846;44.788;20.486;2024-02-28T04:39:55;21.45;;;10.20;;
54945;SDS011;40846;44.788;20.486;2024-02-28T04:42:21;29.42;;;10.90;;
54945;SDS011;40846;44.788;20.486;2024-02-28T04:44:47;23.85;;;9.85;;
54945;SDS011;40846;44.788;20.486;2024-02-28T04:47:13;33.95;;;10.63;;
54945;SDS011;40846;44.788;20.486;2024-02-28T04:49:39;24.48;;;9.25;;
54945;SDS011;40846;44.788;20.486;2024-02-28T04:52:05;28.15;;;10.52;;
54945;SDS011;40846;44.788;20.486;2024-02-28T04:54:32;26.40;;;11.38;;
54945;SDS011;40846;44.788;20.486;2024-02-28T04:56:58;31.38;;;10.45;;
54945;SDS011;40846;44.788;20.486;2024-02-28T04:59:24;26.85;;;9.93;;
54945;SDS011;40846;44.788;20.486;2024-02-28T05:01:50;28.63;;;10.15;;
54945;SDS011;40846;44.788;20.486;2024-02-28T05:04:17;28.42;;;10.25;;
54945;SDS011;40846;44.788;20.486;2024-02-28T05:06:42;22.70;;;9.73;;
54945;SDS011;40846;44.788;20.486;2024-02-28T05:09:08;30.05;;;10.55;;
54945;SDS011;40846;44.788;20.486;2024-02-28T05:11:34;23.73;;;9.98;;
54945;SDS011;40846;44.788;20.486;2024-02-28T05:14:00;25.95;;;10.55;;
54945;SDS011;40846;44.788;20.486;2024-02-28T05:16:26;28.25;;;11.18;;
54945;SDS011;40846;44.788;20.486;2024-02-28T05:18:52;25.40;;;10.48;;
54945;SDS011;40846;44.788;20.486;2024-02-28T05:21:18;28.15;;;10.48;;
54945;SDS011;40846;44.788;20.486;2024-02-28T05:23:45;32.58;;;11.77;;
54945;SDS011;40846;44.788;20.486;2024-02-28T05:26:11;24.90;;;10.73;;
54945;SDS011;40846;44.788;20.486;2024-02-28T05:28:37;26.25;;;11.85;;
54945;SDS011;40846;44.788;20.486;2024-02-28T05:31:22;29.88;;;11.55;;
54945;SDS011;40846;44.788;20.486;2024-02-28T05:33:52;28.08;;;10.93;;
54945;SDS011;40846;44.788;20.486;2024-02-28T05:36:25;28.00;;;9.68;;
54945;SDS011;40846;44.788;20.486;2024-02-28T05:38:52;24.23;;;9.88;;
54945;SDS011;40846;44.788;20.486;2024-02-28T05:41:18;35.42;;;10.70;;
54945;SDS011;40846;44.788;20.486;2024-02-28T05:43:45;33.65;;;10.23;;
54945;SDS011;40846;44.788;20.486;2024-02-28T05:46:11;29.70;;;11.77;;
54945;SDS011;40846;44.788;20.486;2024-02-28T05:48:37;36.15;;;11.65;;
54945;SDS011;40846;44.788;20.486;2024-02-28T05:51:03;26.73;;;10.45;;
54945;SDS011;40846;44.788;20.486;2024-02-28T05:53:30;27.70;;;10.98;;
54945;SDS011;40846;44.788;20.486;2024-02-28T05:56:07;32.08;;;10.57;;
54945;SDS011;40846;44.788;20.486;2024-02-28T05:58:43;32.20;;;12.05;;
54945;SDS011;40846;44.788;20.486;2024-02-28T06:01:10;31.75;;;12.10;;
54945;SDS011;40846;44.788;20.486;2024-02-28T06:03:39;26.65;;;11.50;;
54945;SDS011;40846;44.788;20.486;2024-02-28T06:06:05;32.75;;;11.82;;
54945;SDS011;40846;44.788;20.486;2024-02-28T06:08:34;33.92;;;10.70;;
54945;SDS011;40846;44.788;20.486;2024-02-28T06:11:00;33.78;;;11.98;;
54945;SDS011;40846;44.788;20.486;2024-02-28T06:13:27;39.60;;;12.57;;
54945;SDS011;40846;44.788;20.486;2024-02-28T06:15:54;27.88;;;10.70;;
54945;SDS011;40846;44.788;20.486;2024-02-28T06:18:20;23.95;;;11.10;;
54945;SDS011;40846;44.788;20.486;2024-02-28T06:20:48;26.75;;;10.77;;
54945;SDS011;40846;44.788;20.486;2024-02-28T06:23:14;37.75;;;11.85;;
54945;SDS011;40846;44.788;20.486;2024-02-28T06:25:40;33.35;;;12.95;;
54945;SDS011;40846;44.788;20.486;2024-02-28T06:28:06;26.73;;;11.27;;
54945;SDS011;40846;44.788;20.486;2024-02-28T06:30:33;33.38;;;12.23;;
54945;SDS011;40846;44.788;20.486;2024-02-28T06:32:59;32.53;;;10.18;;
54945;SDS011;40846;44.788;20.486;2024-02-28T06:35:25;28.70;;;12.10;;
54945;SDS011;40846;44.788;20.486;2024-02-28T06:37:52;31.38;;;12.25;;
54945;SDS011;40846;44.788;20.486;2024-02-28T06:40:18;36.35;;;11.20;;
54945;SDS011;40846;44.788;20.486;2024-02-28T06:42:44;31.02;;;12.52;;
54945;SDS011;40846;44.788;20.486;2024-02-28T06:45:10;31.25;;;12.13;;
54945;SDS011;40846;44.788;20.486;2024-02-28T06:47:36;34.13;;;11.82;;
54945;SDS011;40846;44.788;20.486;2024-02-28T06:50:03;32.97;;;11.98;;
54945;SDS011;40846;44.788;20.486;2024-02-28T06:52:29;35.00;;;11.95;;
54945;SDS011;40846;44.788;20.486;2024-02-28T06:54:55;30.45;;;11.93;;
54945;SDS011;40846;44.788;20.486;2024-02-28T06:57:22;24.85;;;12.13;;
54945;SDS011;40846;44.788;20.486;2024-02-28T06:59:48;26.80;;;10.68;;
54945;SDS011;40846;44.788;20.486;2024-02-28T07:02:14;30.80;;;10.60;;
54945;SDS011;40846;44.788;20.486;2024-02-28T07:04:41;36.83;;;11.98;;
54945;SDS011;40846;44.788;20.486;2024-02-28T07:07:07;35.38;;;11.27;;
54945;SDS011;40846;44.788;20.486;2024-02-28T07:09:33;23.80;;;11.15;;
54945;SDS011;40846;44.788;20.486;2024-02-28T07:15:08;27.10;;;11.60;;
54945;SDS011;40846;44.788;20.486;2024-02-28T07:17:35;31.27;;;11.60;;
54945;SDS011;40846;44.788;20.486;2024-02-28T07:20:01;24.85;;;12.13;;
54945;SDS011;40846;44.788;20.486;2024-02-28T07:22:27;33.65;;;12.50;;
54945;SDS011;40846;44.788;20.486;2024-02-28T07:24:53;29.95;;;13.48;;
54945;SDS011;40846;44.788;20.486;2024-02-28T07:30:23;26.15;;;12.18;;
54945;SDS011;40846;44.788;20.486;2024-02-28T07:32:48;25.63;;;11.23;;
54945;SDS011;40846;44.788;20.486;2024-02-28T07:35:14;22.17;;;10.90;;
54945;SDS011;40846;44.788;20.486;2024-02-28T07:37:40;21.75;;;10.60;;
54945;SDS011;40846;44.788;20.486;2024-02-28T07:40:06;26.73;;;11.80;;
54945;SDS011;40846;44.788;20.486;2024-02-28T07:45:55;26.27;;;11.20;;
54945;SDS011;40846;44.788;20.486;2024-02-28T07:48:21;24.45;;;11.25;;
54945;SDS011;40846;44.788;20.486;2024-02-28T07:50:47;26.13;;;11.23;;
54945;SDS011;40846;44.788;20.486;2024-02-28T07:53:13;24.63;;;11.45;;
54945;SDS011;40846;44.788;20.486;2024-02-28T07:55:40;27.08;;;11.18;;
54945;SDS011;40846;44.788;20.486;2024-02-28T07:58:06;27.83;;;12.07;;
54945;SDS011;40846;44.788;20.486;2024-02-28T08:00:32;24.83;;;12.73;;
54945;SDS011;40846;44.788;20.486;2024-02-28T08:02:58;19.45;;;10.27;;
54945;SDS011;40846;44.788;20.486;2024-02-28T08:05:24;26.63;;;11.60;;
54945;SDS011;40846;44.788;20.486;2024-02-28T08:07:51;27.77;;;11.07;;
54945;SDS011;40846;44.788;20.486;2024-02-28T08:10:17;26.00;;;10.45;;
54945;SDS011;40846;44.788;20.486;2024-02-28T08:12:43;34.35;;;9.57;;
54945;SDS011;40846;44.788;20.486;2024-02-28T08:15:09;55.05;;;25.40;;
54945;SDS011;40846;44.788;20.486;2024-02-28T08:17:35;36.30;;;15.73;;
54945;SDS011;40846;44.788;20.486;2024-02-28T08:20:02;32.25;;;13.23;;
54945;SDS011;40846;44.788;20.486;2024-02-28T08:22:30;39.03;;;16.17;;
54945;SDS011;40846;44.788;20.486;2024-02-28T08:24:56;42.15;;;17.70;;
54945;SDS011;40846;44.788;20.486;2024-02-28T08:27:22;22.42;;;10.63;;
54945;SDS011;40846;44.788;20.486;2024-02-28T08:29:49;25.48;;;11.18;;
54945;SDS011;40846;44.788;20.486;2024-02-28T08:32:15;32.15;;;11.48;;
54945;SDS011;40846;44.788;20.486;2024-02-28T08:34:44;26.58;;;10.50;;
54945;SDS011;40846;44.788;20.486;2024-02-28T08:37:14;20.63;;;10.25;;
54945;SDS011;40846;44.788;20.486;2024-02-28T08:39:41;19.30;;;10.35;;
54945;SDS011;40846;44.788;20.486;2024-02-28T08:42:07;25.08;;;9.75;;
54945;SDS011;40846;44.788;20.486;2024-02-28T08:44:33;17.77;;;9.23;;
54945;SDS011;40846;44.788;20.486;2024-02-28T08:46:59;22.50;;;10.52;;
54945;SDS011;40846;44.788;20.486;2024-02-28T08:49:25;20.88;;;9.55;;
54945;SDS011;40846;44.788;20.486;2024-02-28T08:51:51;18.50;;;8.43;;
54945;SDS011;40846;44.788;20.486;2024-02-28T08:54:17;19.48;;;9.05;;
54945;SDS011;40846;44.788;20.486;2024-02-28T08:56:43;26.10;;;11.18;;
54945;SDS011;40846;44.788;20.486;2024-02-28T08:59:09;36.80;;;10.52;;
54945;SDS011;40846;44.788;20.486;2024-02-28T09:01:36;23.58;;;10.88;;
54945;SDS011;40846;44.788;20.486;2024-02-28T09:04:02;29.27;;;10.43;;
54945;SDS011;40846;44.788;20.486;2024-02-28T09:06:28;26.67;;;9.57;;
54945;SDS011;40846;44.788;20.486;2024-02-28T09:08:55;29.92;;;10.23;;
54945;SDS011;40846;44.788;20.486;2024-02-28T09:11:21;26.15;;;10.95;;
54945;SDS011;40846;44.788;20.486;2024-02-28T09:13:47;24.00;;;10.55;;
54945;SDS011;40846;44.788;20.486;2024-02-28T09:16:13;22.23;;;8.82;;
54945;SDS011;40846;44.788;20.486;2024-02-28T09:18:39;21.65;;;9.85;;
54945;SDS011;40846;44.788;20.486;2024-02-28T09:21:07;25.60;;;9.52;;
54945;SDS011;40846;44.788;20.486;2024-02-28T09:23:33;26.20;;;10.63;;
54945;SDS011;40846;44.788;20.486;2024-02-28T09:26:03;19.88;;;9.52;;
54945;SDS011;40846;44.788;20.486;2024-02-28T09:28:29;21.80;;;9.80;;
54945;SDS011;40846;44.788;20.486;2024-02-28T09:30:55;27.30;;;9.15;;
54945;SDS011;40846;44.788;20.486;2024-02-28T09:33:22;22.55;;;9.13;;
54945;SDS011;40846;44.788;20.486;2024-02-28T09:35:48;30.67;;;9.52;;
54945;SDS011;40846;44.788;20.486;2024-02-28T09:38:14;26.80;;;9.60;;
54945;SDS011;40846;44.788;20.486;2024-02-28T09:40:41;22.20;;;9.13;;
54945;SDS011;40846;44.788;20.486;2024-02-28T09:43:11;23.20;;;10.27;;
54945;SDS011;40846;44.788;20.486;2024-02-28T09:45:37;23.83;;;9.75;;
54945;SDS011;40846;44.788;20.486;2024-02-28T09:48:04;17.40;;;7.93;;
54945;SDS011;40846;44.788;20.486;2024-02-28T09:50:30;25.42;;;8.80;;
54945;SDS011;40846;44.788;20.486;2024-02-28T09:52:56;15.95;;;9.05;;
54945;SDS011;40846;44.788;20.486;2024-02-28T09:55:22;26.88;;;10.15;;
54945;SDS011;40846;44.788;20.486;2024-02-28T09:57:49;20.45;;;9.70;;
54945;SDS011;40846;44.788;20.486;2024-02-28T10:00:17;19.50;;;8.77;;
54945;SDS011;40846;44.788;20.486;2024-02-28T10:02:46;20.30;;;9.27;;
54945;SDS011;40846;44.788;20.486;2024-02-28T10:05:14;22.67;;;8.88;;
54945;SDS011;40846;44.788;20.486;2024-02-28T10:07:49;24.60;;;9.07;;
54945;SDS011;40846;44.788;20.486;2024-02-28T10:10:16;24.23;;;8.90;;
54945;SDS011;40846;44.788;20.486;2024-02-28T10:12:42;18.13;;;9.27;;
54945;SDS011;40846;44.788;20.486;2024-02-28T10:15:10;24.83;;;9.18;;
54945;SDS011;40846;44.788;20.486;2024-02-28T10:17:36;23.48;;;9.23;;
54945;SDS011;40846;44.788;20.486;2024-02-28T10:20:02;25.92;;;9.82;;
54945;SDS011;40846;44.788;20.486;2024-02-28T10:22:35;22.25;;;9.75;;
54945;SDS011;40846;44.788;20.486;2024-02-28T10:25:01;43.25;;;10.23;;
54945;SDS011;40846;44.788;20.486;2024-02-28T10:27:31;19.88;;;8.93;;
54945;SDS011;40846;44.788;20.486;2024-02-28T10:29:57;23.67;;;9.60;;
54945;SDS011;40846;44.788;20.486;2024-02-28T10:32:23;14.55;;;7.30;;
54945;SDS011;40846;44.788;20.486;2024-02-28T10:34:49;16.50;;;8.68;;
54945;SDS011;40846;44.788;20.486;2024-02-28T10:37:16;25.35;;;8.55;;
54945;SDS011;40846;44.788;20.486;2024-02-28T10:39:42;22.35;;;10.00;;
54945;SDS011;40846;44.788;20.486;2024-02-28T10:42:09;13.75;;;7.85;;
54945;SDS011;40846;44.788;20.486;2024-02-28T10:44:35;21.60;;;9.00;;
54945;SDS011;40846;44.788;20.486;2024-02-28T10:47:02;24.25;;;8.95;;
54945;SDS011;40846;44.788;20.486;2024-02-28T10:49:28;22.95;;;8.02;;
54945;SDS011;40846;44.788;20.486;2024-02-28T10:51:55;30.20;;;8.70;;
54945;SDS011;40846;44.788;20.486;2024-02-28T10:54:22;19.92;;;8.90;;
54945;SDS011;40846;44.788;20.486;2024-02-28T10:56:50;29.77;;;8.65;;
54945;SDS011;40846;44.788;20.486;2024-02-28T10:59:17;15.93;;;8.15;;
54945;SDS011;40846;44.788;20.486;2024-02-28T11:01:43;23.35;;;8.73;;
54945;SDS011;40846;44.788;20.486;2024-02-28T11:04:10;16.40;;;8.65;;
54945;SDS011;40846;44.788;20.486;2024-02-28T11:06:58;15.18;;;8.00;;
54945;SDS011;40846;44.788;20.486;2024-02-28T11:09:24;17.80;;;8.38;;
54945;SDS011;40846;44.788;20.486;2024-02-28T11:11:51;18.63;;;8.25;;
54945;SDS011;40846;44.788;20.486;2024-02-28T11:14:17;20.00;;;7.97;;
54945;SDS011;40846;44.788;20.486;2024-02-28T11:16:47;23.80;;;8.48;;
54945;SDS011;40846;44.788;20.486;2024-02-28T11:19:20;27.13;;;7.95;;
54945;SDS011;40846;44.788;20.486;2024-02-28T11:21:51;17.60;;;8.32;;
54945;SDS011;40846;44.788;20.486;2024-02-28T11:24:25;18.13;;;8.20;;
54945;SDS011;40846;44.788;20.486;2024-02-28T11:26:54;14.98;;;7.82;;
54945;SDS011;40846;44.788;20.486;2024-02-28T11:29:27;20.08;;;7.88;;
54945;SDS011;40846;44.788;20.486;2024-02-28T11:31:56;17.80;;;8.05;;
54945;SDS011;40846;44.788;20.486;2024-02-28T11:34:22;21.85;;;8.75;;
54945;SDS011;40846;44.788;20.486;2024-02-28T11:36:52;24.77;;;9.43;;
54945;SDS011;40846;44.788;20.486;2024-02-28T11:39:20;17.10;;;8.85;;
54945;SDS011;40846;44.788;20.486;2024-02-28T11:41:49;24.42;;;8.82;;
54945;SDS011;40846;44.788;20.486;2024-02-28T11:44:16;16.45;;;7.85;;
54945;SDS011;40846;44.788;20.486;2024-02-28T11:46:43;19.67;;;9.65;;
54945;SDS011;40846;44.788;20.486;2024-02-28T11:49:09;21.65;;;8.82;;
54945;SDS011;40846;44.788;20.486;2024-02-28T11:51:35;23.25;;;8.60;;
54945;SDS011;40846;44.788;20.486;2024-02-28T11:54:02;22.88;;;8.93;;
54945;SDS011;40846;44.788;20.486;2024-02-28T11:56:28;19.15;;;7.88;;
54945;SDS011;40846;44.788;20.486;2024-02-28T11:58:54;29.55;;;9.10;;
54945;SDS011;40846;44.788;20.486;2024-02-28T12:01:39;22.20;;;8.63;;
54945;SDS011;40846;44.788;20.486;2024-02-28T12:04:06;17.75;;;8.13;;
54945;SDS011;40846;44.788;20.486;2024-02-28T12:06:35;15.80;;;8.32;;
54945;SDS011;40846;44.788;20.486;2024-02-28T12:09:01;20.77;;;8.52;;
54945;SDS011;40846;44.788;20.486;2024-02-28T12:11:28;20.65;;;8.15;;
54945;SDS011;40846;44.788;20.486;2024-02-28T12:13:55;22.33;;;8.35;;
54945;SDS011;40846;44.788;20.486;2024-02-28T12:16:24;20.00;;;8.32;;
54945;SDS011;40846;44.788;20.486;2024-02-28T12:18:52;24.00;;;8.07;;
54945;SDS011;40846;44.788;20.486;2024-02-28T12:21:19;21.73;;;7.72;;
54945;SDS011;40846;44.788;20.486;2024-02-28T12:23:46;18.17;;;8.18;;
54945;SDS011;40846;44.788;20.486;2024-02-28T12:26:13;20.02;;;8.77;;
54945;SDS011;40846;44.788;20.486;2024-02-28T12:28:39;27.35;;;8.32;;
54945;SDS011;40846;44.788;20.486;2024-02-28T12:31:06;20.42;;;8.25;;
54945;SDS011;40846;44.788;20.486;2024-02-28T12:33:35;17.83;;;8.30;;
54945;SDS011;40846;44.788;20.486;2024-02-28T12:36:01;18.65;;;8.35;;
54945;SDS011;40846;44.788;20.486;2024-02-28T12:38:29;17.65;;;7.70;;
54945;SDS011;40846;44.788;20.486;2024-02-28T12:40:56;16.08;;;8.10;;
54945;SDS011;40846;44.788;20.486;2024-02-28T12:43:22;16.92;;;7.82;;
54945;SDS011;40846;44.788;20.486;2024-02-28T12:45:48;22.38;;;7.93;;
54945;SDS011;40846;44.788;20.486;2024-02-28T12:48:14;18.40;;;7.20;;
54945;SDS011;40846;44.788;20.486;2024-02-28T12:50:40;17.92;;;7.15;;
54945;SDS011;40846;44.788;20.486;2024-02-28T12:53:06;17.63;;;7.63;;
54945;SDS011;40846;44.788;20.486;2024-02-28T12:55:33;14.02;;;6.97;;
54945;SDS011;40846;44.788;20.486;2024-02-28T12:57:59;16.05;;;7.30;;
54945;SDS011;40846;44.788;20.486;2024-02-28T13:00:29;27.10;;;7.80;;
54945;SDS011;40846;44.788;20.486;2024-02-28T13:02:55;20.08;;;8.05;;
54945;SDS011;40846;44.788;20.486;2024-02-28T13:05:21;25.73;;;9.40;;
54945;SDS011;40846;44.788;20.486;2024-02-28T13:07:47;19.02;;;8.13;;
54945;SDS011;40846;44.788;20.486;2024-02-28T13:10:13;20.75;;;7.78;;
54945;SDS011;40846;44.788;20.486;2024-02-28T13:12:39;24.10;;;8.73;;
54945;SDS011;40846;44.788;20.486;2024-02-28T13:15:06;15.23;;;7.90;;
54945;SDS011;40846;44.788;20.486;2024-02-28T13:17:33;16.70;;;7.97;;
54945;SDS011;40846;44.788;20.486;2024-02-28T13:19:59;17.52;;;8.55;;
54945;SDS011;40846;44.788;20.486;2024-02-28T13:22:25;29.40;;;9.80;;
54945;SDS011;40846;44.788;20.486;2024-02-28T13:24:51;20.08;;;9.05;;
54945;SDS011;40846;44.788;20.486;2024-02-28T13:27:17;21.52;;;9.60;;
54945;SDS011;40846;44.788;20.486;2024-02-28T13:29:43;19.33;;;8.95;;
54945;SDS011;40846;44.788;20.486;2024-02-28T13:32:09;30.13;;;8.80;;
54945;SDS011;40846;44.788;20.486;2024-02-28T13:34:36;24.27;;;8.52;;
54945;SDS011;40846;44.788;20.486;2024-02-28T13:37:02;21.65;;;8.70;;
54945;SDS011;40846;44.788;20.486;2024-02-28T13:39:28;24.25;;;8.93;;
54945;SDS011;40846;44.788;20.486;2024-02-28T13:41:54;20.33;;;9.23;;
54945;SDS011;40846;44.788;20.486;2024-02-28T13:44:21;17.63;;;8.02;;
54945;SDS011;40846;44.788;20.486;2024-02-28T13:46:47;24.52;;;9.77;;
54945;SDS011;40846;44.788;20.486;2024-02-28T13:49:13;19.88;;;9.05;;
54945;SDS011;40846;44.788;20.486;2024-02-28T13:51:39;29.85;;;7.93;;
54945;SDS011;40846;44.788;20.486;2024-02-28T13:54:06;17.05;;;8.50;;
54945;SDS011;40846;44.788;20.486;2024-02-28T13:56:32;19.50;;;8.02;;
54945;SDS011;40846;44.788;20.486;2024-02-28T13:58:59;19.70;;;8.82;;
54945;SDS011;40846;44.788;20.486;2024-02-28T14:01:25;25.35;;;9.13;;
54945;SDS011;40846;44.788;20.486;2024-02-28T14:03:51;24.23;;;8.07;;
54945;SDS011;40846;44.788;20.486;2024-02-28T14:06:17;25.52;;;9.95;;
54945;SDS011;40846;44.788;20.486;2024-02-28T14:08:43;20.17;;;8.57;;
54945;SDS011;40846;44.788;20.486;2024-02-28T14:11:10;20.40;;;7.53;;
54945;SDS011;40846;44.788;20.486;2024-02-28T14:13:36;20.42;;;8.15;;
54945;SDS011;40846;44.788;20.486;2024-02-28T14:16:04;17.35;;;7.75;;
54945;SDS011;40846;44.788;20.486;2024-02-28T14:18:30;23.42;;;7.97;;
54945;SDS011;40846;44.788;20.486;2024-02-28T14:20:56;22.50;;;7.82;;